Wetterdaten: Woche 11.08.14 - 17.08.14 (KW33)
Datum Zeit Temp. A. Feuchte A. Luftdruck Regen Wind Richtung Taupunkt Windchill Windben
11.08.2014 00:00 21,0 C 83 % 1009,1 hPa 0,0 l/m 0,0 km/h N 17,9 C 21,0 C 0,0 km/h
11.08.2014 01:00 20,1 C 83 % 1008,5 hPa 0,0 l/m 0,0 km/h N 17,1 C 20,1 C 0,0 km/h
11.08.2014 02:00 19,4 C 83 % 1008,5 hPa 0,0 l/m 0,0 km/h N 16,3 C 19,4 C 0,0 km/h
11.08.2014 03:00 18,9 C 82 % 1008,6 hPa 0,0 l/m 0,0 km/h N 15,7 C 18,9 C 0,0 km/h
11.08.2014 04:00 18,4 C 81 % 1008,8 hPa 0,0 l/m 0,0 km/h N 15,1 C 18,4 C 0,0 km/h
11.08.2014 05:00 18,4 C 80 % 1009,6 hPa 0,0 l/m 0,4 km/h N 14,8 C 18,4 C 3,2 km/h
11.08.2014 06:00 20,6 C 80 % 1010,2 hPa 0,0 l/m 3,6 km/h N 16,9 C 20,6 C 18,9 km/h
11.08.2014 07:00 23,0 C 76 % 1010,5 hPa 0,0 l/m 8,1 km/h N 18,5 C 22,3 C 21,3 km/h
11.08.2014 08:00 24,6 C 69 % 1010,8 hPa 0,0 l/m 7,8 km/h N 18,6 C 24,2 C 22,9 km/h
11.08.2014 09:00 25,2 C 65 % 1010,9 hPa 0,0 l/m 9,3 km/h N 18,2 C 24,5 C 24,9 km/h
11.08.2014 10:00 26,5 C 62 % 1011,1 hPa 0,0 l/m 8,5 km/h N 18,5 C 26,1 C 26,1 km/h
11.08.2014 11:00 27,7 C 57 % 1011,4 hPa 0,0 l/m 8,6 km/h N 18,2 C 27,3 C 23,3 km/h
11.08.2014 12:00 28,3 C 54 % 1011,4 hPa 0,0 l/m 9,3 km/h N 18,0 C 27,8 C 24,5 km/h
11.08.2014 13:00 28,0 C 55 % 1011,3 hPa 0,0 l/m 11,2 km/h N 18,1 C 27,4 C 28,6 km/h
11.08.2014 14:00 27,1 C 56 % 1011,3 hPa 0,0 l/m 12,5 km/h N 17,5 C 26,1 C 32,2 km/h
11.08.2014 15:00 25,4 C 61 % 1011,9 hPa 0,0 l/m 10,7 km/h N 17,2 C 24,6 C 29,8 km/h
11.08.2014 16:00 23,2 C 69 % 1012,3 hPa 0,0 l/m 12,8 km/h N 17,2 C 21,5 C 30,6 km/h
11.08.2014 17:00 21,4 C 77 % 1012,7 hPa 0,0 l/m 7,6 km/h N 17,2 C 20,9 C 22,9 km/h
11.08.2014 18:00 20,2 C 81 % 1012,9 hPa 0,5 l/m 3,7 km/h N 16,7 C 20,2 C 13,3 km/h
11.08.2014 19:00 19,9 C 82 % 1013,7 hPa 0,8 l/m 5,1 km/h N 16,7 C 19,9 C 14,9 km/h
11.08.2014 20:00 18,5 C 83 % 1014,3 hPa 1,0 l/m 3,4 km/h N 15,5 C 18,5 C 12,1 km/h
11.08.2014 21:00 17,4 C 83 % 1014,3 hPa 0,5 l/m 2,5 km/h N 14,5 C 17,4 C 7,3 km/h
11.08.2014 22:00 17,3 C 83 % 1014,4 hPa 0,0 l/m 0,3 km/h N 14,3 C 17,3 C 2,8 km/h
11.08.2014 23:00 17,4 C 82 % 1014,3 hPa 0,0 l/m 0,4 km/h N 14,2 C 17,4 C 3,2 km/h
12.08.2014 00:00 17,6 C 81 % 1014,5 hPa 0,0 l/m 0,5 km/h N 14,3 C 17,6 C 4,0 km/h
12.08.2014 01:00 17,6 C 81 % 1014,3 hPa 0,0 l/m 0,0 km/h N 14,3 C 17,6 C 0,8 km/h
12.08.2014 02:00 17,7 C 81 % 1014,4 hPa 0,0 l/m 0,3 km/h N 14,4 C 17,7 C 2,0 km/h
12.08.2014 03:00 17,7 C 82 % 1014,2 hPa 0,0 l/m 1,5 km/h N 14,5 C 17,7 C 6,8 km/h
12.08.2014 04:00 17,9 C 84 % 1014,1 hPa 0,0 l/m 0,3 km/h N 15,1 C 17,9 C 3,6 km/h
12.08.2014 05:00 18,0 C 84 % 1014,4 hPa 0,0 l/m 0,1 km/h N 15,2 C 18,0 C 2,8 km/h
12.08.2014 06:00 17,9 C 84 % 1014,3 hPa 0,0 l/m 0,6 km/h N 15,1 C 17,9 C 2,4 km/h
12.08.2014 07:00 18,3 C 84 % 1014,4 hPa 0,0 l/m 0,3 km/h N 15,5 C 18,3 C 2,8 km/h
12.08.2014 08:00 18,5 C 82 % 1015,2 hPa 0,0 l/m 3,3 km/h N 15,3 C 18,5 C 10,5 km/h
12.08.2014 09:00 18,7 C 81 % 1015,1 hPa 0,0 l/m 3,0 km/h N 15,3 C 18,7 C 9,3 km/h
12.08.2014 10:00 18,9 C 79 % 1015,2 hPa 0,0 l/m 4,5 km/h N 15,1 C 18,9 C 14,9 km/h
12.08.2014 11:00 17,9 C 81 % 1016,0 hPa 0,3 l/m 7,6 km/h N 14,5 C 17,2 C 21,3 km/h
12.08.2014 12:00 17,7 C 82 % 1016,2 hPa 0,0 l/m 3,1 km/h N 14,7 C 17,7 C 13,3 km/h
12.08.2014 13:00 17,9 C 81 % 1015,8 hPa 0,5 l/m 2,3 km/h N 14,7 C 17,9 C 12,1 km/h
12.08.2014 14:00 17,9 C 83 % 1016,0 hPa 1,0 l/m 0,5 km/h N 14,9 C 17,9 C 4,8 km/h
12.08.2014 15:00 17,8 C 84 % 1016,1 hPa 0,3 l/m 2,0 km/h N 15,0 C 17,8 C 8,1 km/h
12.08.2014 16:00 17,7 C 83 % 1015,9 hPa 0,3 l/m 0,6 km/h N 14,8 C 17,7 C 5,2 km/h
12.08.2014 17:00 17,2 C 83 % 1015,8 hPa 1,3 l/m 0,7 km/h N 14,3 C 17,2 C 6,4 km/h
12.08.2014 18:00 16,6 C 84 % 1015,3 hPa 0,3 l/m 0,4 km/h N 13,9 C 16,6 C 4,0 km/h
12.08.2014 19:00 16,3 C 84 % 1014,6 hPa 0,0 l/m 0,4 km/h N 13,4 C 16,3 C 3,2 km/h
12.08.2014 20:00 16,0 C 83 % 1014,6 hPa 0,0 l/m 0,1 km/h N 13,1 C 16,0 C 0,8 km/h
12.08.2014 21:00 15,8 C 83 % 1014,4 hPa 0,0 l/m 0,1 km/h N 12,9 C 15,8 C 1,6 km/h
12.08.2014 22:00 15,7 C 83 % 1014,1 hPa 0,0 l/m 0,0 km/h N 12,8 C 15,7 C 0,4 km/h
12.08.2014 23:00 15,7 C 82 % 1013,9 hPa 0,0 l/m 0,0 km/h N 12,6 C 15,7 C 0,4 km/h
13.08.2014 00:00 15,7 C 82 % 1014,0 hPa 0,3 l/m 0,0 km/h N 12,5 C 15,7 C 0,0 km/h
13.08.2014 01:00 15,7 C 81 % 1014,0 hPa 0,0 l/m 0,3 km/h N 12,5 C 15,7 C 1,6 km/h
13.08.2014 02:00 15,6 C 81 % 1013,8 hPa 1,8 l/m 0,1 km/h N 12,3 C 15,6 C 0,8 km/h
13.08.2014 03:00 15,6 C 80 % 1012,8 hPa 0,8 l/m 0,2 km/h N 12,2 C 15,6 C 2,4 km/h
13.08.2014 04:00 15,3 C 80 % 1012,3 hPa 0,3 l/m 0,0 km/h N 11,9 C 15,3 C 0,8 km/h
13.08.2014 05:00 15,3 C 80 % 1012,7 hPa 0,3 l/m 0,0 km/h N 11,8 C 15,3 C 0,0 km/h
13.08.2014 06:00 15,4 C 79 % 1012,4 hPa 0,3 l/m 0,0 km/h N 11,7 C 15,4 C 0,8 km/h
13.08.2014 07:00 15,7 C 78 % 1012,1 hPa 0,0 l/m 1,4 km/h N 11,9 C 15,7 C 5,6 km/h
13.08.2014 08:00 15,9 C 78 % 1011,3 hPa 0,0 l/m 4,4 km/h N 12,0 C 15,9 C 12,5 km/h
13.08.2014 09:00 16,3 C 79 % 1010,6 hPa 0,0 l/m 4,8 km/h N 12,5 C 16,3 C 13,3 km/h
13.08.2014 10:00 17,1 C 82 % 1009,8 hPa 0,0 l/m 5,6 km/h N 14,0 C 17,1 C 16,5 km/h
13.08.2014 11:00 18,6 C 82 % 1009,0 hPa 0,0 l/m 6,5 km/h N 15,4 C 18,5 C 17,7 km/h
13.08.2014 12:00 19,0 C 80 % 1008,1 hPa 0,0 l/m 5,9 km/h N 15,4 C 18,9 C 18,5 km/h
13.08.2014 13:00 19,4 C 80 % 1006,9 hPa 0,0 l/m 4,2 km/h N 15,9 C 19,4 C 14,5 km/h
13.08.2014 14:00 20,2 C 80 % 1005,9 hPa 0,0 l/m 3,6 km/h N 16,7 C 20,2 C 12,9 km/h
13.08.2014 15:00 21,8 C 78 % 1005,0 hPa 0,0 l/m 3,6 km/h N 17,7 C 21,8 C 13,3 km/h
13.08.2014 16:00 22,2 C 76 % 1004,3 hPa 0,0 l/m 4,3 km/h N 17,7 C 22,2 C 17,3 km/h
13.08.2014 17:00 21,6 C 78 % 1003,7 hPa 0,0 l/m 4,1 km/h N 17,5 C 21,6 C 18,1 km/h
13.08.2014 18:00 21,4 C 78 % 1003,6 hPa 0,0 l/m 6,2 km/h N 17,5 C 21,2 C 20,5 km/h
13.08.2014 19:00 20,9 C 80 % 1004,6 hPa 1,0 l/m 0,9 km/h N 17,4 C 20,9 C 7,3 km/h
13.08.2014 20:00 19,7 C 83 % 1003,8 hPa 1,6 l/m 0,3 km/h N 16,7 C 19,7 C 2,4 km/h
13.08.2014 21:00 19,0 C 82 % 1003,8 hPa 0,3 l/m 0,3 km/h N 15,9 C 19,0 C 3,6 km/h
13.08.2014 22:00 18,5 C 81 % 1004,8 hPa 0,0 l/m 8,1 km/h N 15,2 C 17,2 C 26,2 km/h
13.08.2014 23:00 18,3 C 80 % 1006,3 hPa 0,0 l/m 14,5 km/h N 14,7 C 15,3 C 42,3 km/h
14.08.2014 00:00 18,0 C 72 % 1007,4 hPa 0,0 l/m 12,0 km/h N 12,9 C 15,8 C 37,4 km/h
14.08.2014 01:00 18,2 C 69 % 1007,8 hPa 0,0 l/m 10,1 km/h N 12,3 C 16,6 C 32,2 km/h
14.08.2014 02:00 18,3 C 64 % 1007,9 hPa 0,0 l/m 12,3 km/h N 11,3 C 16,0 C 41,8 km/h
14.08.2014 03:00 18,0 C 63 % 1008,3 hPa 0,0 l/m 15,8 km/h N 10,8 C 14,7 C 47,5 km/h
14.08.2014 04:00 17,6 C 65 % 1008,8 hPa 0,0 l/m 16,5 km/h N 10,8 C 14,0 C 44,3 km/h
14.08.2014 05:00 17,3 C 65 % 1009,0 hPa 0,0 l/m 15,6 km/h N 10,7 C 13,9 C 40,6 km/h
14.08.2014 06:00 17,1 C 66 % 1009,7 hPa 0,0 l/m 11,0 km/h N 10,8 C 15,2 C 36,2 km/h
14.08.2014 07:00 16,9 C 69 % 1011,4 hPa 0,0 l/m 5,1 km/h N 11,1 C 16,6 C 22,9 km/h
14.08.2014 08:00 16,8 C 69 % 1011,8 hPa 0,0 l/m 7,4 km/h N 11,1 C 16,3 C 19,7 km/h
14.08.2014 09:00 17,2 C 69 % 1012,1 hPa 0,0 l/m 8,1 km/h N 11,5 C 16,3 C 23,8 km/h
14.08.2014 10:00 17,3 C 70 % 1012,7 hPa 0,0 l/m 5,6 km/h N 11,8 C 17,3 C 18,9 km/h
14.08.2014 11:00 17,5 C 69 % 1012,7 hPa 0,0 l/m 7,1 km/h N 11,7 C 17,1 C 20,9 km/h
14.08.2014 12:00 17,8 C 69 % 1012,6 hPa 0,0 l/m 6,4 km/h N 12,0 C 17,4 C 21,3 km/h
14.08.2014 13:00 18,0 C 70 % 1012,6 hPa 0,0 l/m 4,0 km/h N 12,4 C 18,0 C 14,9 km/h
14.08.2014 14:00 18,5 C 69 % 1012,3 hPa 0,0 l/m 3,5 km/h N 12,6 C 18,5 C 17,3 km/h
14.08.2014 15:00 19,1 C 68 % 1012,1 hPa 0,0 l/m 2,9 km/h N 13,0 C 19,1 C 11,7 km/h
14.08.2014 16:00 19,6 C 66 % 1011,4 hPa 0,0 l/m 4,0 km/h N 13,1 C 19,6 C 13,7 km/h
14.08.2014 17:00 20,0 C 65 % 1011,3 hPa 0,0 l/m 2,6 km/h N 13,1 C 20,0 C 10,9 km/h
14.08.2014 18:00 19,6 C 65 % 1011,8 hPa 0,0 l/m 2,0 km/h N 12,9 C 19,6 C 9,7 km/h
14.08.2014 19:00 18,9 C 68 % 1011,8 hPa 0,0 l/m 1,9 km/h N 12,7 C 18,9 C 8,4 km/h
14.08.2014 20:00 17,8 C 70 % 1011,8 hPa 0,0 l/m 0,3 km/h N 12,2 C 17,8 C 4,0 km/h
14.08.2014 21:00 17,1 C 73 % 1012,3 hPa 0,0 l/m 0,1 km/h N 12,1 C 17,1 C 2,4 km/h
14.08.2014 22:00 17,2 C 72 % 1012,5 hPa 0,0 l/m 1,3 km/h N 12,0 C 17,2 C 10,4 km/h
14.08.2014 23:00 17,5 C 70 % 1012,7 hPa 0,0 l/m 1,9 km/h N 11,9 C 17,5 C 9,3 km/h
15.08.2014 00:00 17,7 C 69 % 1012,9 hPa 0,0 l/m 2,2 km/h N 12,0 C 17,7 C 10,1 km/h
15.08.2014 01:00 17,9 C 67 % 1013,0 hPa 0,0 l/m 6,6 km/h N 11,8 C 17,7 C 20,9 km/h
15.08.2014 02:00 17,8 C 66 % 1012,9 hPa 0,0 l/m 5,5 km/h N 11,4 C 17,6 C 20,5 km/h
15.08.2014 03:00 17,5 C 68 % 1013,0 hPa 0,0 l/m 6,0 km/h N 11,4 C 17,4 C 20,9 km/h
15.08.2014 04:00 17,1 C 68 % 1012,9 hPa 0,0 l/m 3,8 km/h N 11,1 C 17,1 C 13,3 km/h
15.08.2014 05:00 16,6 C 67 % 1012,8 hPa 0,0 l/m 1,5 km/h N 10,4 C 16,6 C 7,7 km/h
15.08.2014 06:00 15,6 C 71 % 1013,1 hPa 0,0 l/m 0,1 km/h N 10,4 C 15,6 C 2,8 km/h
15.08.2014 07:00 15,6 C 74 % 1013,4 hPa 0,0 l/m 0,3 km/h N 11,0 C 15,6 C 3,6 km/h
15.08.2014 08:00 18,0 C 67 % 1013,3 hPa 0,0 l/m 3,0 km/h N 11,6 C 17,9 C 13,7 km/h
15.08.2014 09:00 19,9 C 58 % 1013,0 hPa 0,0 l/m 5,7 km/h N 11,3 C 19,9 C 18,9 km/h
15.08.2014 10:00 21,1 C 57 % 1013,0 hPa 0,0 l/m 4,7 km/h N 12,2 C 21,1 C 18,9 km/h
15.08.2014 11:00 21,9 C 54 % 1013,0 hPa 0,0 l/m 5,1 km/h N 12,0 C 21,9 C 19,7 km/h
15.08.2014 12:00 22,2 C 53 % 1012,5 hPa 0,0 l/m 6,1 km/h N 12,2 C 22,1 C 18,1 km/h
15.08.2014 13:00 23,3 C 51 % 1012,0 hPa 0,0 l/m 3,3 km/h N 12,6 C 23,3 C 15,7 km/h
15.08.2014 14:00 21,1 C 60 % 1012,0 hPa 0,3 l/m 2,7 km/h N 12,9 C 21,1 C 9,3 km/h
15.08.2014 15:00 20,7 C 67 % 1011,8 hPa 0,0 l/m 0,4 km/h N 14,3 C 20,7 C 4,0 km/h
15.08.2014 16:00 21,4 C 59 % 1011,6 hPa 0,0 l/m 2,7 km/h N 13,0 C 21,4 C 14,1 km/h
15.08.2014 17:00 18,1 C 73 % 1012,3 hPa 1,6 l/m 1,0 km/h N 13,1 C 18,1 C 5,6 km/h
15.08.2014 18:00 15,9 C 83 % 1012,8 hPa 0,8 l/m 0,5 km/h N 12,9 C 15,9 C 3,6 km/h
15.08.2014 19:00 15,4 C 84 % 1013,0 hPa 1,8 l/m 0,0 km/h N 12,6 C 15,4 C 0,0 km/h
15.08.2014 20:00 15,2 C 83 % 1013,1 hPa 0,0 l/m 0,7 km/h N 12,3 C 15,2 C 3,6 km/h
15.08.2014 21:00 15,1 C 82 % 1013,3 hPa 0,0 l/m 0,6 km/h N 12,0 C 15,1 C 3,2 km/h
15.08.2014 22:00 14,4 C 83 % 1013,4 hPa 0,3 l/m 0,2 km/h N 11,5 C 14,4 C 2,4 km/h
15.08.2014 23:00 14,9 C 78 % 1013,8 hPa 0,0 l/m 4,2 km/h N 11,1 C 14,9 C 14,1 km/h
16.08.2014 00:00 16,1 C 70 % 1014,0 hPa 0,0 l/m 8,9 km/h N 10,6 C 14,9 C 24,5 km/h
16.08.2014 01:00 15,7 C 71 % 1014,0 hPa 0,0 l/m 7,3 km/h N 10,4 C 15,1 C 24,5 km/h
16.08.2014 02:00 15,4 C 71 % 1014,3 hPa 0,0 l/m 6,0 km/h N 10,1 C 15,3 C 22,9 km/h
16.08.2014 03:00 15,1 C 72 % 1014,7 hPa 0,0 l/m 5,1 km/h N 10,0 C 15,1 C 18,1 km/h
16.08.2014 04:00 14,9 C 72 % 1014,9 hPa 0,0 l/m 5,5 km/h N 9,9 C 14,8 C 18,1 km/h
16.08.2014 05:00 14,8 C 73 % 1015,0 hPa 0,0 l/m 6,7 km/h N 10,0 C 14,3 C 22,5 km/h
16.08.2014 06:00 14,7 C 73 % 1015,3 hPa 0,0 l/m 6,1 km/h N 9,9 C 14,4 C 24,1 km/h
16.08.2014 07:00 15,1 C 73 % 1015,5 hPa 0,0 l/m 5,7 km/h N 10,2 C 15,0 C 19,3 km/h
16.08.2014 08:00 16,1 C 70 % 1015,7 hPa 0,0 l/m 9,2 km/h N 10,7 C 14,7 C 25,8 km/h
16.08.2014 09:00 17,2 C 67 % 1015,7 hPa 0,0 l/m 11,1 km/h N 11,0 C 15,1 C 31,8 km/h
16.08.2014 10:00 18,2 C 63 % 1016,0 hPa 0,0 l/m 10,1 km/h N 11,0 C 16,6 C 28,2 km/h
16.08.2014 11:00 19,0 C 61 % 1016,0 hPa 0,0 l/m 8,7 km/h N 11,2 C 18,1 C 25,8 km/h
16.08.2014 12:00 19,4 C 60 % 1015,8 hPa 0,0 l/m 9,7 km/h N 11,3 C 18,1 C 29,0 km/h
16.08.2014 13:00 19,1 C 60 % 1015,8 hPa 0,0 l/m 7,3 km/h N 11,2 C 18,7 C 21,7 km/h
16.08.2014 14:00 19,3 C 60 % 1015,5 hPa 0,0 l/m 6,9 km/h N 11,3 C 18,8 C 24,5 km/h
16.08.2014 15:00 19,7 C 59 % 1015,5 hPa 0,0 l/m 9,4 km/h N 11,3 C 18,6 C 28,5 km/h
16.08.2014 16:00 18,4 C 64 % 1015,6 hPa 0,0 l/m 7,5 km/h N 11,4 C 17,7 C 21,7 km/h
16.08.2014 17:00 18,0 C 66 % 1015,7 hPa 0,0 l/m 7,0 km/h N 11,7 C 17,8 C 25,3 km/h
16.08.2014 18:00 18,5 C 61 % 1015,6 hPa 0,0 l/m 7,1 km/h N 10,8 C 18,2 C 24,9 km/h
16.08.2014 19:00 17,5 C 67 % 1016,0 hPa 0,0 l/m 9,9 km/h N 11,2 C 16,0 C 28,6 km/h
16.08.2014 20:00 16,4 C 67 % 1016,5 hPa 0,0 l/m 8,2 km/h N 10,3 C 15,5 C 26,1 km/h
16.08.2014 21:00 15,8 C 70 % 1017,0 hPa 0,0 l/m 8,7 km/h N 10,2 C 14,6 C 24,1 km/h
16.08.2014 22:00 15,5 C 73 % 1017,3 hPa 0,0 l/m 7,3 km/h N 10,6 C 15,0 C 22,5 km/h
16.08.2014 23:00 15,9 C 73 % 1017,3 hPa 0,0 l/m 8,6 km/h N 11,0 C 14,8 C 26,1 km/h
17.08.2014 00:00 15,8 C 70 % 1017,4 hPa 0,0 l/m 10,6 km/h N 10,3 C 13,8 C 30,6 km/h
17.08.2014 01:00 15,8 C 70 % 1017,4 hPa 0,0 l/m 8,8 km/h N 10,2 C 14,5 C 26,9 km/h
17.08.2014 02:00 15,6 C 69 % 1017,2 hPa 0,0 l/m 8,1 km/h N 10,0 C 14,8 C 24,9 km/h
17.08.2014 03:00 15,0 C 71 % 1017,3 hPa 0,0 l/m 10,1 km/h N 9,8 C 13,0 C 25,3 km/h
17.08.2014 04:00 14,9 C 72 % 1017,2 hPa 0,0 l/m 10,9 km/h N 9,9 C 12,6 C 30,2 km/h
17.08.2014 05:00 14,9 C 72 % 1017,0 hPa 0,0 l/m 8,0 km/h N 9,8 C 14,0 C 23,7 km/h
17.08.2014 06:00 14,6 C 74 % 1017,3 hPa 0,0 l/m 8,4 km/h N 9,9 C 13,5 C 21,7 km/h
17.08.2014 07:00 15,3 C 72 % 1017,6 hPa 0,0 l/m 7,7 km/h N 10,2 C 14,5 C 22,1 km/h
17.08.2014 08:00 16,5 C 68 % 1017,8 hPa 0,0 l/m 9,6 km/h N 10,6 C 14,9 C 24,9 km/h
17.08.2014 09:00 17,7 C 66 % 1017,7 hPa 0,0 l/m 8,9 km/h N 11,1 C 16,5 C 25,7 km/h
17.08.2014 10:00 18,6 C 61 % 1017,8 hPa 0,0 l/m 9,2 km/h N 11,0 C 17,5 C 25,3 km/h
17.08.2014 11:00 18,5 C 64 % 1017,7 hPa 0,0 l/m 8,2 km/h N 11,5 C 17,7 C 26,5 km/h
17.08.2014 12:00 20,0 C 56 % 1017,3 hPa 0,0 l/m 7,8 km/h N 10,9 C 19,5 C 21,7 km/h
17.08.2014 13:00 21,3 C 51 % 1016,6 hPa 0,0 l/m 6,2 km/h N 10,7 C 21,1 C 24,6 km/h
17.08.2014 14:00 21,1 C 50 % 1015,8 hPa 0,0 l/m 6,3 km/h N 10,3 C 20,9 C 19,7 km/h
17.08.2014 15:00 21,2 C 52 % 1015,2 hPa 0,0 l/m 4,7 km/h N 10,8 C 21,2 C 18,9 km/h
17.08.2014 16:00 21,6 C 50 % 1014,5 hPa 0,0 l/m 4,7 km/h N 10,8 C 21,6 C 18,9 km/h
17.08.2014 17:00 21,6 C 50 % 1013,9 hPa 0,0 l/m 3,0 km/h N 10,6 C 21,6 C 12,1 km/h
17.08.2014 18:00 21,5 C 49 % 1013,5 hPa 0,0 l/m 0,8 km/h N 10,3 C 21,5 C 4,8 km/h
17.08.2014 19:00 21,2 C 51 % 1012,9 hPa 0,0 l/m 1,2 km/h N 10,6 C 21,2 C 6,4 km/h
17.08.2014 20:00 19,8 C 57 % 1012,9 hPa 0,0 l/m 1,0 km/h N 11,0 C 19,8 C 8,0 km/h
17.08.2014 21:00 17,6 C 64 % 1012,9 hPa 0,0 l/m 0,0 km/h N 10,8 C 17,6 C 1,2 km/h
17.08.2014 22:00 15,1 C 74 % 1012,9 hPa 0,0 l/m 0,0 km/h N 10,4 C 15,1 C 0,8 km/h
17.08.2014 23:00 14,9 C 77 % 1012,5 hPa 0,0 l/m 0,6 km/h N 10,8 C 14,9 C 3,6 km/h
Min-Datum _ 15.08.14 17.08.14 13.08.14 - 11.08.14 - 17.08.14 17.08.14 11.08.14
_ Min-Zeit 22:45 13:30 18:00 - 00:00 - 14:15 04:45 00:00
Minimum _ 13,8 C 47 % 1003,2 hPa - 0,0 km/h - 9,4 C 12,1 C 0,0 km/h
Max-Datum _ 11.08.14 12.08.14 17.08.14 13.08.14 14.08.14 - 11.08.14 11.08.14 14.08.14
_ Max-Zeit 12:30 04:15 10:15 02:00 04:15 - 10:30 12:15 03:15
Maximum _ 28,5 C 84 % 1017,9 hPa 1,8 l/m 18,2 km/h
N
- 19,0 C 28,1 C 57,9 km/h
N
Durchschnitt _ 18,4 C 72 % 1012,9 hPa #17,9 l/m 4,7 km/h N 13,0 C 17,9 C 15,4 km/h